Time;durP1;ratioP1;P1;durP2;ratioP2;P2;SDS_P1;SDS_P2;PMS_P1;PMS_P2;Temp;Humidity;BMP_temperature;BMP_pressure;BME280_temperature;BME280_humidity;BME280_pressure;Samples;Min_cycle;Max_cycle;Signal;HPM_P1;HPM_P2
2021/03/12 00:00:36;;;;;;;64.97;53.45;;;21.90;48.80;;;;;;5073772;28;20033;-58
2021/03/12 00:03:14;;;;;;;46.55;38.58;;;21.90;48.90;;;;;;5074042;28;20035;-58
2021/03/12 00:05:55;;;;;;;41.38;33.00;;;21.90;48.70;;;;;;5078708;28;20040;-57
2021/03/12 00:08:28;;;;;;;37.88;30.92;;;21.90;48.50;;;;;;5073201;28;20043;-57
2021/03/12 00:10:54;;;;;;;33.97;26.63;;;21.90;48.40;;;;;;5075765;28;20693;-66
2021/03/12 00:13:21;;;;;;;30.58;24.73;;;21.90;48.30;;;;;;5068005;28;20747;-66
2021/03/12 00:15:47;;;;;;;30.15;25.15;;;21.90;48.30;;;;;;5076484;28;20029;-66
2021/03/12 00:18:19;;;;;;;28.58;22.58;;;21.90;48.30;;;;;;5074017;28;20035;-67
2021/03/12 00:20:46;;;;;;;28.80;21.65;;;21.80;48.10;;;;;;5072658;28;20037;-67
2021/03/12 00:23:12;;;;;;;25.30;20.65;;;21.90;48.20;;;;;;5072474;28;20117;-67
2021/03/12 00:25:40;;;;;;;27.60;18.67;;;21.80;48.20;;;;;;5052182;28;20029;-66
2021/03/12 00:28:08;;;;;;;19.92;17.20;;;21.80;48.10;;;;;;5081947;28;20458;-67
2021/03/12 00:30:35;;;;;;;21.92;16.42;;;21.80;48.20;;;;;;5086857;28;20036;-67
2021/03/12 00:33:02;;;;;;;21.42;14.75;;;21.80;48.10;;;;;;5081768;28;20044;-67
2021/03/12 00:35:28;;;;;;;19.58;14.98;;;21.80;47.90;;;;;;5063226;28;20029;-66
2021/03/12 00:37:54;;;;;;;17.85;13.98;;;21.80;47.90;;;;;;5061416;28;20033;-66
2021/03/12 00:40:25;;;;;;;17.25;13.30;;;21.80;47.90;;;;;;5034164;28;20036;-66
2021/03/12 00:42:51;;;;;;;15.75;12.63;;;21.80;47.80;;;;;;5067105;28;20059;-66
2021/03/12 00:45:19;;;;;;;16.20;11.85;;;21.70;47.70;;;;;;5033890;28;20039;-67
2021/03/12 00:47:48;;;;;;;17.00;11.30;;;21.80;47.70;;;;;;5092426;28;20110;-67
2021/03/12 00:50:20;;;;;;;16.35;11.48;;;21.80;47.70;;;;;;5070536;28;20029;-66
2021/03/12 00:52:46;;;;;;;12.73;10.45;;;21.70;47.40;;;;;;5087400;28;20036;-66
2021/03/12 00:55:13;;;;;;;18.35;11.88;;;21.70;47.50;;;;;;5071152;28;20096;-66
2021/03/12 00:57:44;;;;;;;16.23;11.18;;;21.70;47.60;;;;;;5107591;28;20032;-67
2021/03/12 01:00:11;;;;;;;16.20;10.63;;;21.70;47.40;;;;;;5090194;28;20035;-66
2021/03/12 01:02:40;;;;;;;12.18;10.18;;;21.70;47.40;;;;;;5066648;28;20132;-67
2021/03/12 01:05:07;;;;;;;13.55;10.15;;;21.70;47.40;;;;;;5086945;28;20068;-66
2021/03/12 01:07:33;;;;;;;11.63;8.77;;;21.70;47.50;;;;;;5094406;28;20115;-66
2021/03/12 01:10:01;;;;;;;11.98;9.00;;;21.70;47.40;;;;;;5059288;28;20028;-66
2021/03/12 01:12:33;;;;;;;14.35;9.52;;;21.70;47.30;;;;;;5073181;28;20371;-66
2021/03/12 01:15:00;;;;;;;12.48;9.55;;;21.60;47.30;;;;;;5067954;28;20040;-66
2021/03/12 01:17:27;;;;;;;14.25;8.98;;;21.70;47.20;;;;;;5098440;28;20132;-66
2021/03/12 01:19:53;;;;;;;10.98;9.02;;;21.70;47.20;;;;;;5070353;28;20032;-67
2021/03/12 01:22:19;;;;;;;10.07;8.32;;;21.60;47.00;;;;;;5088198;28;20129;-66
2021/03/12 01:24:46;;;;;;;12.40;8.77;;;21.60;47.10;;;;;;5100035;28;20044;-66
2021/03/12 01:27:15;;;;;;;12.85;9.55;;;21.60;47.20;;;;;;5077666;28;20039;-66
2021/03/12 01:29:41;;;;;;;13.73;9.18;;;21.60;47.10;;;;;;5069759;28;20035;-66
2021/03/12 01:32:16;;;;;;;11.98;8.70;;;21.60;47.10;;;;;;5071248;28;20104;-66
2021/03/12 01:34:49;;;;;;;10.82;8.18;;;21.60;47.10;;;;;;5069987;28;20083;-66
2021/03/12 01:37:16;;;;;;;11.93;7.47;;;21.60;47.20;;;;;;5089178;28;20078;-66
2021/03/12 01:39:52;;;;;;;10.57;8.75;;;21.60;47.10;;;;;;5073275;28;20440;-66
2021/03/12 01:42:18;;;;;;;10.75;8.70;;;21.60;47.00;;;;;;5104470;28;20469;-66
2021/03/12 01:44:45;;;;;;;11.77;8.50;;;21.50;47.00;;;;;;5092593;28;20051;-66
2021/03/12 01:47:13;;;;;;;11.73;8.07;;;21.60;47.00;;;;;;5104845;28;20048;-66
2021/03/12 01:49:39;;;;;;;11.30;7.68;;;21.60;47.10;;;;;;5056881;28;20086;-66
2021/03/12 01:52:06;;;;;;;11.57;8.65;;;21.50;47.60;;;;;;5069931;28;20513;-66
2021/03/12 01:54:35;;;;;;;9.05;7.63;;;21.50;46.90;;;;;;5068824;28;20052;-66
2021/03/12 01:57:06;;;;;;;11.00;8.05;;;21.60;46.90;;;;;;5103722;28;20059;-66
2021/03/12 01:59:41;;;;;;;9.95;7.55;;;21.50;46.80;;;;;;5064790;28;20016;-66
2021/03/12 02:02:19;;;;;;;10.60;7.88;;;21.50;46.80;;;;;;5052911;28;20066;-66
2021/03/12 02:04:53;;;;;;;8.55;7.60;;;21.50;46.60;;;;;;5088606;28;20090;-66
2021/03/12 02:07:19;;;;;;;11.52;7.82;;;21.50;46.60;;;;;;5070101;28;20025;-66
2021/03/12 02:10:05;;;;;;;9.25;7.13;;;21.50;46.60;;;;;;5089147;28;20098;-67
2021/03/12 02:12:51;;;;;;;;;;;21.50;46.60;;;;;;5107142;28;20439;-66
2021/03/12 02:15:32;;;;;;;8.55;7.43;;;21.50;46.90;;;;;;5080993;28;19912;-66
2021/03/12 02:18:12;;;;;;;9.75;7.53;;;21.50;46.30;;;;;;5090282;28;20051;-67
2021/03/12 02:20:52;;;;;;;9.63;6.57;;;21.50;46.30;;;;;;5079816;28;20161;-66
2021/03/12 02:23:52;;;;;;;9.20;6.85;;;21.50;46.30;;;;;;5073201;28;20032;-66
2021/03/12 02:26:44;;;;;;;8.52;6.82;;;21.40;46.30;;;;;;5091036;28;20036;-66
2021/03/12 02:29:20;;;;;;;8.25;7.38;;;21.40;46.40;;;;;;5090042;28;20020;-66
2021/03/12 02:31:48;;;;;;;12.30;7.15;;;21.40;46.30;;;;;;5084034;28;20024;-67
2021/03/12 02:34:17;;;;;;;9.63;7.20;;;21.40;46.40;;;;;;5071487;28;20546;-66
2021/03/12 02:36:48;;;;;;;10.50;7.32;;;21.40;46.30;;;;;;5097199;28;20032;-67
2021/03/12 02:39:20;;;;;;;10.60;7.25;;;21.40;46.30;;;;;;5075817;28;20039;-67
2021/03/12 02:41:50;;;;;;;10.23;7.65;;;21.30;46.10;;;;;;5075374;28;20667;-66
2021/03/12 02:44:29;;;;;;;11.43;8.27;;;21.30;46.10;;;;;;5073929;28;20090;-66
2021/03/12 02:47:03;;;;;;;10.75;8.07;;;21.40;46.10;;;;;;5071593;28;20037;-66
2021/03/12 02:49:30;;;;;;;9.50;7.28;;;21.30;46.60;;;;;;5089568;28;20125;-67
2021/03/12 02:51:58;;;;;;;9.93;6.97;;;21.40;46.10;;;;;;5101649;28;20070;-66
2021/03/12 02:54:24;;;;;;;10.93;7.35;;;21.40;46.10;;;;;;5075772;28;20071;-67
2021/03/12 02:56:51;;;;;;;15.13;7.32;;;21.30;45.90;;;;;;5098788;28;20028;-66
2021/03/12 02:59:19;;;;;;;10.10;7.00;;;21.30;45.90;;;;;;5090144;28;20466;-66
2021/03/12 03:02:04;;;;;;;9.98;7.25;;;21.30;45.80;;;;;;5075251;28;20455;-66
2021/03/12 03:04:41;;;;;;;8.93;7.30;;;21.30;45.80;;;;;;5106018;28;20055;-66
2021/03/12 03:07:27;;;;;;;10.60;7.10;;;21.30;45.70;;;;;;5071509;28;20081;-66
2021/03/12 03:09:54;;;;;;;10.75;6.50;;;21.30;45.70;;;;;;5089314;28;20078;-66
2021/03/12 03:12:24;;;;;;;8.80;6.65;;;21.30;45.80;;;;;;5094348;28;20020;-66
2021/03/12 03:15:00;;;;;;;9.57;6.35;;;21.20;45.70;;;;;;5073145;28;20505;-67
2021/03/12 03:17:31;;;;;;;9.13;6.30;;;21.30;45.60;;;;;;5056427;28;20036;-66
2021/03/12 03:19:58;;;;;;;10.85;6.95;;;21.20;45.60;;;;;;5073514;28;20111;-66
2021/03/12 03:22:26;;;;;;;7.38;5.82;;;21.20;45.60;;;;;;5073394;28;20485;-67
2021/03/12 03:24:54;;;;;;;7.57;5.75;;;21.20;45.60;;;;;;5071819;28;20486;-66
2021/03/12 03:27:20;;;;;;;9.43;5.97;;;21.20;45.60;;;;;;5084657;28;20038;-67
2021/03/12 03:29:48;;;;;;;8.15;5.95;;;21.20;45.60;;;;;;5061479;28;20446;-67
2021/03/12 03:32:16;;;;;;;8.25;4.95;;;21.20;45.60;;;;;;5055378;28;20470;-66
2021/03/12 03:34:43;;;;;;;9.57;5.57;;;21.20;45.60;;;;;;5088696;28;20024;-66
2021/03/12 03:37:10;;;;;;;7.50;5.60;;;21.20;45.50;;;;;;5055047;28;20017;-66
2021/03/12 03:39:39;;;;;;;26.20;6.45;;;21.20;45.60;;;;;;5088452;28;20027;-66
2021/03/12 03:42:07;;;;;;;11.00;6.05;;;21.20;45.50;;;;;;5071690;28;20543;-67
2021/03/12 03:44:35;;;;;;;9.45;5.82;;;21.20;45.60;;;;;;5107714;28;20035;-66
2021/03/12 03:47:05;;;;;;;9.95;6.28;;;21.20;45.60;;;;;;5075060;28;20052;-67
2021/03/12 03:49:35;;;;;;;10.30;5.78;;;21.20;45.60;;;;;;5072697;28;20067;-67
2021/03/12 03:52:04;;;;;;;7.03;5.60;;;21.10;45.50;;;;;;5063380;28;20024;-67
2021/03/12 03:54:40;;;;;;;8.57;5.68;;;21.10;45.60;;;;;;5106228;28;20043;-66
2021/03/12 03:57:12;;;;;;;9.15;5.18;;;21.10;45.60;;;;;;5062440;28;20123;-66
2021/03/12 03:59:41;;;;;;;9.70;5.25;;;21.10;45.70;;;;;;5054589;28;20025;-67
2021/03/12 04:02:10;;;;;;;6.53;4.78;;;21.10;45.70;;;;;;5098086;28;20518;-58
2021/03/12 04:04:37;;;;;;;7.38;4.90;;;21.10;45.70;;;;;;5089947;28;20437;-58
2021/03/12 04:07:06;;;;;;;6.40;5.00;;;21.10;45.70;;;;;;5075682;28;20099;-58
2021/03/12 04:09:35;;;;;;;7.63;5.50;;;21.10;45.80;;;;;;5071008;28;20378;-58
2021/03/12 04:12:01;;;;;;;8.18;5.13;;;21.10;45.80;;;;;;5072455;28;20025;-57
2021/03/12 04:14:28;;;;;;;9.00;5.43;;;21.10;45.80;;;;;;5075075;28;20031;-57
2021/03/12 04:16:56;;;;;;;10.10;5.68;;;21.10;45.90;;;;;;5073726;28;20082;-58
2021/03/12 04:19:22;;;;;;;8.45;5.18;;;21.10;45.80;;;;;;5090985;28;20044;-57
2021/03/12 04:21:49;;;;;;;7.28;5.63;;;21.10;45.90;;;;;;5089708;28;20029;-58
2021/03/12 04:24:17;;;;;;;7.43;5.32;;;21.10;45.80;;;;;;5109496;28;20042;-57
2021/03/12 04:26:44;;;;;;;7.15;5.63;;;21.10;45.80;;;;;;5075552;28;20039;-58
2021/03/12 04:29:17;;;;;;;7.18;5.07;;;21.10;45.80;;;;;;5090636;28;20442;-58
2021/03/12 04:31:45;;;;;;;7.93;5.32;;;21.10;45.70;;;;;;5060391;28;20043;-58
2021/03/12 04:34:12;;;;;;;9.80;5.40;;;21.10;45.70;;;;;;5068323;28;20036;-58
2021/03/12 04:36:40;;;;;;;11.60;5.68;;;21.10;45.70;;;;;;5071304;28;20036;-58
2021/03/12 04:39:07;;;;;;;7.57;5.93;;;21.10;45.70;;;;;;5089977;28;20474;-58
2021/03/12 04:41:37;;;;;;;8.95;6.00;;;21.10;45.70;;;;;;5071558;28;20032;-58
2021/03/12 04:44:10;;;;;;;9.73;6.25;;;21.10;45.70;;;;;;5075101;28;20038;-57
2021/03/12 04:46:38;;;;;;;8.80;5.68;;;21.00;45.60;;;;;;5071426;28;20075;-58
2021/03/12 04:49:09;;;;;;;8.18;5.57;;;21.10;45.80;;;;;;5076978;28;20136;-57
2021/03/12 04:51:37;;;;;;;6.47;5.60;;;21.00;45.60;;;;;;5085715;28;20750;-58
2021/03/12 04:54:08;;;;;;;;;;;21.00;45.70;;;;;;5086074;28;20108;-57
2021/03/12 04:56:36;;;;;;;7.20;4.95;;;21.00;46.00;;;;;;5051888;28;19959;-58
2021/03/12 04:59:04;;;;;;;7.95;5.88;;;21.10;45.70;;;;;;5063685;28;20078;-57
2021/03/12 05:01:33;;;;;;;8.98;5.53;;;21.10;45.70;;;;;;5076018;28;20359;-57
2021/03/12 05:04:05;;;;;;;6.78;5.40;;;21.10;45.80;;;;;;5096449;28;20086;-58
2021/03/12 05:06:32;;;;;;;5.65;4.72;;;21.10;45.80;;;;;;5071107;28;20382;-57
2021/03/12 05:09:10;;;;;;;8.38;5.38;;;21.00;45.90;;;;;;5077382;28;20033;-57
2021/03/12 05:11:44;;;;;;;9.00;5.63;;;21.00;45.90;;;;;;5051653;28;20040;-58
2021/03/12 05:14:19;;;;;;;6.80;5.25;;;21.00;45.90;;;;;;5076537;28;20066;-58
2021/03/12 05:16:47;;;;;;;8.23;5.88;;;21.00;45.90;;;;;;5085023;28;20128;-58
2021/03/12 05:19:14;;;;;;;6.15;5.55;;;21.00;46.00;;;;;;5100097;28;20037;-58
2021/03/12 05:21:43;;;;;;;9.18;5.50;;;21.00;46.00;;;;;;5084435;28;20041;-57
2021/03/12 05:24:15;;;;;;;8.85;6.63;;;21.00;46.00;;;;;;5051574;28;20037;-58
2021/03/12 05:26:42;;;;;;;10.07;6.22;;;21.00;46.00;;;;;;5084954;28;20040;-57
2021/03/12 05:29:12;;;;;;;6.43;5.60;;;21.00;46.10;;;;;;5079203;28;20077;-57
2021/03/12 05:31:38;;;;;;;8.15;5.72;;;21.00;46.10;;;;;;5061850;28;20115;-62
2021/03/12 05:34:04;;;;;;;10.18;6.25;;;21.00;46.10;;;;;;5053190;28;20025;-61
2021/03/12 05:36:32;;;;;;;7.70;6.30;;;21.00;46.10;;;;;;5065048;28;20025;-59
2021/03/12 05:38:58;;;;;;;8.73;6.13;;;21.00;46.10;;;;;;5086394;28;20032;-61
2021/03/12 05:41:27;;;;;;;7.50;5.80;;;21.00;46.10;;;;;;5070854;28;20036;-57
2021/03/12 05:43:56;;;;;;;10.45;6.80;;;21.00;46.20;;;;;;5066960;28;20520;-62
2021/03/12 05:46:22;;;;;;;11.48;6.70;;;21.00;46.20;;;;;;5084385;28;20049;-62
2021/03/12 05:48:52;;;;;;;7.47;6.03;;;20.90;46.20;;;;;;5092626;28;20052;-62
2021/03/12 05:51:21;;;;;;;7.43;5.78;;;21.00;46.20;;;;;;5074276;28;20025;-61
2021/03/12 05:53:49;;;;;;;7.38;5.60;;;20.90;46.20;;;;;;5072167;28;20035;-61
2021/03/12 05:56:17;;;;;;;7.97;6.28;;;21.00;46.20;;;;;;5059639;28;20044;-61
2021/03/12 05:58:54;;;;;;;8.93;6.68;;;20.90;46.20;;;;;;5057382;28;20052;-62
2021/03/12 06:01:21;;;;;;;6.55;5.57;;;20.90;46.20;;;;;;5097840;28;20025;-61
2021/03/12 06:03:47;;;;;;;7.03;5.65;;;20.90;46.20;;;;;;5073392;28;20046;-61
2021/03/12 06:06:13;;;;;;;6.75;6.03;;;20.90;46.30;;;;;;5064694;28;20033;-62
2021/03/12 06:08:42;;;;;;;8.55;6.90;;;21.00;46.30;;;;;;5088771;28;20042;-62
2021/03/12 06:11:08;;;;;;;8.00;5.80;;;21.00;46.40;;;;;;5076113;28;20024;-62
2021/03/12 06:13:50;;;;;;;8.73;6.43;;;20.90;46.30;;;;;;5072320;28;20025;-61
2021/03/12 06:16:29;;;;;;;8.43;6.45;;;20.90;46.40;;;;;;5102030;28;20032;-61
2021/03/12 06:19:12;;;;;;;10.02;7.05;;;20.90;46.40;;;;;;5074438;28;20128;-62
2021/03/12 06:21:42;;;;;;;8.27;6.68;;;21.00;46.50;;;;;;5060483;28;20055;-61
2021/03/12 06:24:32;;;;;;;8.65;7.20;;;21.00;46.50;;;;;;5065584;28;20048;-61
2021/03/12 06:27:29;;;;;;;9.93;7.18;;;20.90;46.50;;;;;;5072763;28;20081;-61
2021/03/12 06:30:14;;;;;;;7.82;6.57;;;20.90;46.40;;;;;;5067978;28;20025;-61
2021/03/12 06:32:58;;;;;;;8.30;7.30;;;21.00;46.50;;;;;;5065075;28;20501;-61
2021/03/12 06:35:47;;;;;;;12.48;6.82;;;20.90;46.50;;;;;;5067782;28;20040;-62
2021/03/12 06:38:37;;;;;;;11.13;7.40;;;20.90;46.50;;;;;;5074729;28;20115;-61
2021/03/12 06:41:44;;;;;;;10.93;7.32;;;20.90;46.50;;;;;;5074490;28;20039;-61
2021/03/12 06:44:34;;;;;;;10.50;7.35;;;20.90;46.60;;;;;;5061149;28;20020;-61
2021/03/12 06:47:05;;;;;;;9.52;7.00;;;20.90;46.60;;;;;;5077303;28;20041;-61
2021/03/12 06:49:34;;;;;;;12.48;9.20;;;20.90;46.70;;;;;;5065840;28;20024;-61
2021/03/12 06:52:34;;;;;;;16.35;13.18;;;20.90;46.70;;;;;;5060415;28;20033;-61
2021/03/12 06:55:06;;;;;;;16.88;14.75;;;20.90;46.70;;;;;;5071206;28;20115;-61
2021/03/12 06:57:45;;;;;;;21.75;18.75;;;20.90;46.70;;;;;;5098760;28;20123;-61
2021/03/12 07:00:32;;;;;;;24.48;19.15;;;20.90;46.80;;;;;;5053224;28;20033;-59
2021/03/12 07:03:01;;;;;;;25.70;21.25;;;20.90;46.80;;;;;;5060480;28;20044;-57
2021/03/12 07:06:04;;;;;;;23.80;19.02;;;20.90;46.80;;;;;;5046601;28;20478;-58
2021/03/12 07:08:40;;;;;;;21.80;17.85;;;20.90;46.90;;;;;;5055342;28;20025;-57
2021/03/12 07:11:29;;;;;;;19.77;15.32;;;20.90;46.90;;;;;;5033110;28;20037;-57
2021/03/12 07:14:25;;;;;;;17.20;15.20;;;20.80;46.80;;;;;;5049830;28;20056;-57
2021/03/12 07:16:52;;;;;;;15.73;13.32;;;20.90;46.90;;;;;;5066584;28;20107;-57
2021/03/12 07:19:21;;;;;;;15.85;13.10;;;20.80;46.90;;;;;;5053362;28;20033;-57
2021/03/12 07:21:51;;;;;;;30.35;25.38;;;20.80;46.90;;;;;;5053582;28;20032;-57
2021/03/12 07:24:22;;;;;;;25.88;23.25;;;20.80;47.10;;;;;;5053409;28;20062;-57
2021/03/12 07:27:01;;;;;;;29.92;24.40;;;20.80;47.10;;;;;;5053617;28;20103;-59
2021/03/12 07:29:38;;;;;;;33.25;29.17;;;20.80;47.10;;;;;;5053374;28;20475;-60
2021/03/12 07:32:15;;;;;;;41.00;32.17;;;20.80;47.10;;;;;;5053314;28;20037;-61
2021/03/12 07:34:42;;;;;;;47.60;42.42;;;20.80;47.20;;;;;;5053605;28;20056;-61
2021/03/12 07:37:26;;;;;;;59.85;50.28;;;20.80;47.20;;;;;;5053467;28;20356;-61
2021/03/12 07:39:53;;;;;;;54.75;48.75;;;20.80;47.20;;;;;;5053401;28;20055;-61
2021/03/12 07:42:25;;;;;;;69.97;60.10;;;20.80;47.20;;;;;;5053502;28;20433;-59
2021/03/12 07:45:22;;;;;;;86.53;75.07;;;20.90;47.30;;;;;;5086504;28;20478;-57
2021/03/12 07:48:15;;;;;;;54.08;46.35;;;20.90;47.40;;;;;;5058059;28;20482;-55
2021/03/12 07:51:03;;;;;;;28.30;22.40;;;20.90;47.40;;;;;;5056049;28;20028;-56
2021/03/12 07:53:52;;;;;;;12.98;10.50;;;20.90;47.60;;;;;;5056043;28;20035;-56
2021/03/12 07:56:43;;;;;;;13.52;9.25;;;20.90;47.70;;;;;;5056063;28;20039;-57
2021/03/12 07:59:47;;;;;;;10.68;8.10;;;20.80;47.60;;;;;;5040273;28;20433;-56
2021/03/12 08:02:55;;;;;;;9.98;6.85;;;20.80;47.80;;;;;;5058907;28;20120;-60
2021/03/12 08:05:45;;;;;;;11.38;6.63;;;20.80;48.50;;;;;;5073329;28;20040;-60
2021/03/12 08:08:38;;;;;;;13.45;6.38;;;20.80;47.90;;;;;;5062601;28;20394;-59
2021/03/12 08:11:36;;;;;;;17.08;12.18;;;20.80;48.00;;;;;;5095069;28;20416;-59
2021/03/12 08:14:17;;;;;;;14.73;8.43;;;20.90;48.10;;;;;;5096184;28;20027;-54
2021/03/12 08:17:13;;;;;;;15.73;9.20;;;20.90;48.10;;;;;;5095678;28;20458;-57
2021/03/12 08:19:48;;;;;;;13.23;8.02;;;20.90;48.10;;;;;;5086538;28;20052;-57
2021/03/12 08:22:31;;;;;;;10.52;8.30;;;20.90;48.10;;;;;;5095267;28;20133;-58
2021/03/12 08:25:32;;;;;;;14.85;7.80;;;21.00;48.10;;;;;;5107975;28;20401;-63
2021/03/12 08:28:19;;;;;;;9.40;7.68;;;21.00;48.00;;;;;;5098966;28;20038;-62
2021/03/12 08:30:54;;;;;;;10.38;7.78;;;21.10;48.00;;;;;;5095385;28;20035;-61
2021/03/12 08:33:38;;;;;;;11.65;7.95;;;21.10;48.00;;;;;;5093877;28;20035;-58
2021/03/12 08:36:27;;;;;;;70.65;59.30;;;21.10;48.00;;;;;;5073583;28;20044;-60
2021/03/12 08:39:30;;;;;;;40.22;34.08;;;21.10;47.90;;;;;;5080548;28;20040;-68
2021/03/12 08:42:18;;;;;;;22.88;18.85;;;21.20;47.90;;;;;;5087566;28;20149;-68
2021/03/12 08:45:11;;;;;;;18.08;14.13;;;21.30;47.80;;;;;;5090163;28;20044;-68
2021/03/12 08:47:54;;;;;;;14.57;10.02;;;21.30;47.80;;;;;;5064592;28;20448;-67
2021/03/12 08:50:20;;;;;;;13.35;9.48;;;21.30;47.70;;;;;;5062614;28;20028;-68
2021/03/12 08:52:52;;;;;;;11.48;8.98;;;21.30;47.70;;;;;;5091841;28;20111;-67
2021/03/12 08:55:36;;;;;;;13.60;8.35;;;21.40;47.70;;;;;;5076744;28;20051;-68
2021/03/12 08:58:15;;;;;;;10.10;7.38;;;21.40;47.60;;;;;;5091366;28;20031;-68
2021/03/12 09:00:47;;;;;;;8.73;6.93;;;21.40;47.60;;;;;;5091672;28;20397;-69
2021/03/12 09:03:32;;;;;;;8.75;6.85;;;21.50;47.60;;;;;;5091470;28;20396;-63
2021/03/12 09:06:30;;;;;;;8.98;7.05;;;21.50;47.60;;;;;;5092200;28;20058;-64
2021/03/12 09:09:27;;;;;;;10.18;7.35;;;21.60;47.60;;;;;;5076408;28;20028;-69
2021/03/12 09:11:59;;;;;;;10.13;6.85;;;21.60;47.50;;;;;;5103721;28;20371;-67
2021/03/12 09:14:48;;;;;;;11.48;5.80;;;21.60;47.50;;;;;;5064653;28;20174;-66
2021/03/12 09:17:14;;;;;;;10.40;6.20;;;21.70;47.50;;;;;;5071254;28;20032;-68
2021/03/12 09:19:46;;;;;;;8.15;5.45;;;21.70;47.40;;;;;;5066400;28;20110;-66
2021/03/12 09:22:22;;;;;;;9.50;5.45;;;21.70;47.40;;;;;;5070560;28;20025;-68
2021/03/12 09:24:53;;;;;;;10.13;6.97;;;21.70;47.40;;;;;;5071327;28;20111;-68
2021/03/12 09:27:24;;;;;;;11.57;7.88;;;21.80;47.30;;;;;;5073012;28;20020;-68
2021/03/12 09:30:03;;;;;;;13.80;8.20;;;21.80;47.30;;;;;;5075778;28;20024;-65
2021/03/12 09:32:40;;;;;;;7.93;6.88;;;21.90;47.20;;;;;;5081027;28;20020;-64
2021/03/12 09:35:18;;;;;;;9.50;5.82;;;21.80;47.20;;;;;;5082069;28;20031;-64
2021/03/12 09:37:49;;;;;;;7.30;5.95;;;21.90;47.10;;;;;;5085546;28;20032;-59
2021/03/12 09:40:35;;;;;;;28.85;24.13;;;22.00;47.10;;;;;;5072648;28;20078;-58
2021/03/12 09:43:20;;;;;;;14.02;11.95;;;22.00;47.00;;;;;;5070606;28;20041;-58
2021/03/12 09:46:15;;;;;;;16.25;12.07;;;22.00;47.00;;;;;;5073972;28;20036;-61
2021/03/12 09:48:46;;;;;;;18.48;16.58;;;22.10;46.90;;;;;;5058145;28;20032;-58
2021/03/12 09:51:31;;;;;;;12.18;8.20;;;22.10;46.90;;;;;;5073628;28;20354;-58
2021/03/12 09:53:59;;;;;;;7.85;6.20;;;22.20;47.00;;;;;;5073732;28;20031;-58
2021/03/12 09:56:31;;;;;;;10.63;5.25;;;22.40;47.00;;;;;;5073900;28;20066;-58
2021/03/12 09:59:04;;;;;;;10.25;5.28;;;22.70;46.70;;;;;;5107818;28;20032;-62
2021/03/12 10:02:07;;;;;;;8.55;4.32;;;23.10;46.10;;;;;;5060902;28;20032;-63
2021/03/12 10:04:58;;;;;;;12.85;4.70;;;23.70;45.40;;;;;;5092286;28;20123;-61
2021/03/12 10:07:51;;;;;;;10.52;4.10;;;24.20;44.60;;;;;;5087572;28;20036;-62
2021/03/12 10:10:30;;;;;;;7.65;3.60;;;24.60;44.00;;;;;;5104102;28;20028;-61
2021/03/12 10:13:02;;;;;;;7.50;3.28;;;25.00;43.10;;;;;;5081772;28;20381;-57
2021/03/12 10:15:39;;;;;;;8.70;3.58;;;25.20;42.80;;;;;;5084059;28;20031;-60
2021/03/12 10:18:43;;;;;;;9.88;3.67;;;25.50;41.80;;;;;;5092253;28;20370;-63
2021/03/12 10:21:10;;;;;;;7.85;3.33;;;25.80;42.10;;;;;;5096951;28;20031;-59
2021/03/12 10:23:36;;;;;;;15.32;8.13;;;26.00;41.70;;;;;;5102447;28;20020;-55
2021/03/12 10:26:05;;;;;;;17.77;15.95;;;26.20;41.50;;;;;;5083220;28;20388;-60
2021/03/12 10:28:32;;;;;;;13.50;9.27;;;26.40;40.80;;;;;;5096424;28;20095;-56
2021/03/12 10:31:00;;;;;;;8.70;6.03;;;26.60;40.40;;;;;;5080213;28;20110;-55
2021/03/12 10:33:32;;;;;;;11.98;5.07;;;26.70;39.90;;;;;;5084455;28;20149;-55
2021/03/12 10:36:00;;;;;;;5.80;4.10;;;26.90;39.60;;;;;;5114522;28;20054;-54
2021/03/12 10:38:32;;;;;;;9.80;3.70;;;27.00;39.30;;;;;;5102066;28;20099;-51
2021/03/12 10:41:26;;;;;;;7.45;3.80;;;27.00;39.00;;;;;;5059947;28;20024;-52
2021/03/12 10:44:05;;;;;;;7.22;3.33;;;27.00;39.10;;;;;;5094362;28;20504;-52
2021/03/12 10:46:32;;;;;;;6.80;3.40;;;27.00;38.80;;;;;;5110601;28;20040;-57
2021/03/12 10:48:58;;;;;;;12.55;3.67;;;27.00;38.90;;;;;;5095676;28;20056;-61
2021/03/12 10:51:40;;;;;;;4.65;3.03;;;26.90;38.90;;;;;;5094550;28;20077;-64
2021/03/12 10:54:08;;;;;;;6.88;3.30;;;26.80;38.90;;;;;;5094813;28;20027;-57
2021/03/12 10:56:46;;;;;;;8.27;3.30;;;26.70;38.80;;;;;;5095380;28;20046;-58
2021/03/12 10:59:13;;;;;;;8.73;3.30;;;26.60;39.00;;;;;;5095094;28;20032;-58
2021/03/12 11:01:40;;;;;;;7.90;2.85;;;26.70;39.00;;;;;;5095162;28;20042;-58
2021/03/12 11:04:10;;;;;;;8.85;3.50;;;26.70;38.90;;;;;;5095011;28;20072;-53
2021/03/12 11:06:38;;;;;;;75.07;56.72;;;26.70;38.60;;;;;;5102851;28;20060;-53
2021/03/12 11:09:06;;;;;;;30.80;26.77;;;26.80;38.50;;;;;;5102414;28;20166;-56
2021/03/12 11:11:32;;;;;;;13.20;8.43;;;26.90;38.10;;;;;;5095195;28;20119;-58
2021/03/12 11:13:58;;;;;;;12.70;4.70;;;27.10;38.00;;;;;;5077273;28;20020;-58
2021/03/12 11:16:24;;;;;;;8.32;4.00;;;27.20;38.00;;;;;;5095396;28;20035;-57
2021/03/12 11:18:50;;;;;;;10.93;2.40;;;27.40;38.00;;;;;;5094756;28;20024;-60
2021/03/12 11:21:16;;;;;;;10.18;2.60;;;27.60;37.50;;;;;;5076272;28;20382;-62
2021/03/12 11:23:43;;;;;;;8.82;2.35;;;27.90;37.30;;;;;;5095036;28;20032;-62
2021/03/12 11:26:10;;;;;;;5.05;2.38;;;28.10;37.20;;;;;;5076875;28;20032;-61
2021/03/12 11:28:36;;;;;;;10.27;2.88;;;28.30;36.80;;;;;;5110967;28;20119;-63
2021/03/12 11:31:03;;;;;;;11.73;8.15;;;28.50;36.50;;;;;;5094741;28;20092;-56
2021/03/12 11:33:29;;;;;;;16.88;10.43;;;28.60;36.30;;;;;;5109998;28;20030;-57
2021/03/12 11:35:57;;;;;;;25.98;20.83;;;28.70;35.70;;;;;;5094826;28;20027;-55
2021/03/12 11:38:23;;;;;;;23.48;21.02;;;28.70;35.40;;;;;;5094182;28;20105;-55
2021/03/12 11:40:49;;;;;;;16.60;12.48;;;28.60;35.20;;;;;;5092881;28;20503;-55
2021/03/12 11:43:15;;;;;;;10.23;6.68;;;28.40;35.30;;;;;;5092124;28;20446;-55
2021/03/12 11:45:41;;;;;;;8.52;5.10;;;28.20;35.30;;;;;;5093253;28;20060;-55
2021/03/12 11:48:08;;;;;;;5.35;2.97;;;27.90;35.50;;;;;;5094027;28;20034;-56
2021/03/12 11:50:36;;;;;;;7.40;2.70;;;27.60;35.70;;;;;;5110107;28;20541;-56
2021/03/12 11:53:03;;;;;;;7.10;2.42;;;27.30;36.00;;;;;;5075303;28;20032;-57
2021/03/12 11:55:29;;;;;;;4.55;2.45;;;27.00;36.20;;;;;;5058523;28;20490;-57
2021/03/12 11:57:55;;;;;;;6.10;2.10;;;26.80;36.60;;;;;;5056114;28;20037;-56
2021/03/12 12:00:21;;;;;;;6.63;2.42;;;26.50;36.80;;;;;;5073745;28;20043;-56
2021/03/12 12:02:49;;;;;;;4.93;2.55;;;26.30;37.20;;;;;;5073729;28;20476;-57
2021/03/12 12:05:16;;;;;;;4.95;2.10;;;26.10;37.40;;;;;;5073387;28;20029;-58
2021/03/12 12:07:42;;;;;;;13.88;2.63;;;25.90;37.70;;;;;;5073580;28;20471;-56
2021/03/12 12:10:09;;;;;;;4.57;2.65;;;25.70;37.90;;;;;;5055771;28;20024;-55
2021/03/12 12:12:41;;;;;;;11.60;6.00;;;25.60;38.20;;;;;;5075819;28;20035;-55
2021/03/12 12:15:08;;;;;;;5.03;4.53;;;25.50;38.40;;;;;;5070405;28;20382;-55
2021/03/12 12:17:34;;;;;;;11.60;3.72;;;25.30;38.50;;;;;;5071939;28;20410;-56
2021/03/12 12:20:00;;;;;;;7.15;2.83;;;25.20;38.50;;;;;;5072172;28;20047;-55
2021/03/12 12:22:26;;;;;;;4.30;3.00;;;25.10;38.60;;;;;;5053465;28;20025;-56
2021/03/12 12:24:56;;;;;;;9.23;2.70;;;25.00;38.80;;;;;;5035433;28;20065;-56
2021/03/12 12:27:22;;;;;;;9.02;3.40;;;25.00;39.00;;;;;;5053461;28;20016;-56
2021/03/12 12:29:48;;;;;;;2.90;2.38;;;24.90;39.30;;;;;;5087402;28;20027;-54
2021/03/12 12:32:13;;;;;;;5.60;2.13;;;24.80;39.40;;;;;;5073267;28;20028;-55
2021/03/12 12:34:39;;;;;;;3.47;1.88;;;24.80;39.60;;;;;;5072839;28;20443;-56
2021/03/12 12:37:05;;;;;;;3.67;2.00;;;24.70;39.70;;;;;;5073319;28;20028;-57
2021/03/12 12:39:31;;;;;;;4.00;2.10;;;24.70;39.80;;;;;;5079319;28;20028;-57
2021/03/12 12:41:57;;;;;;;3.42;1.80;;;24.70;39.80;;;;;;5093384;28;20055;-57
2021/03/12 12:44:24;;;;;;;18.50;2.65;;;24.70;39.90;;;;;;5074158;28;20032;-58
2021/03/12 12:46:50;;;;;;;15.50;2.67;;;24.60;39.90;;;;;;5091877;28;20123;-57
2021/03/12 12:49:17;;;;;;;11.35;2.50;;;24.60;40.00;;;;;;5074142;28;20031;-57
2021/03/12 12:51:44;;;;;;;16.50;2.80;;;24.60;40.10;;;;;;5074961;28;20051;-59
2021/03/12 12:54:11;;;;;;;6.65;2.00;;;24.60;40.20;;;;;;5048362;28;20031;-58
2021/03/12 12:56:37;;;;;;;9.48;2.33;;;24.60;40.20;;;;;;5054759;28;20632;-57
2021/03/12 12:59:04;;;;;;;5.60;1.77;;;24.60;40.30;;;;;;5078644;28;20098;-57
2021/03/12 13:01:30;;;;;;;5.65;1.95;;;24.60;40.30;;;;;;5078085;28;20032;-57
2021/03/12 13:03:56;;;;;;;8.82;5.00;;;24.60;40.20;;;;;;5069965;28;20592;-58
2021/03/12 13:06:22;;;;;;;15.23;7.78;;;24.60;40.20;;;;;;5053010;28;20382;-57
2021/03/12 13:08:48;;;;;;;9.68;8.57;;;24.60;40.20;;;;;;5071972;28;20016;-58
2021/03/12 13:11:14;;;;;;;10.75;7.70;;;24.60;40.20;;;;;;5053758;28;20029;-58